Terminal Aerodrome Forecast
Issued by NWS

Home | Current Version | Previous Version | Text Only | Print | Product List | Glossary On
Versions: 1 2 3 4 5 6 7 8 9 10 11 12 13 14 15 16 17 18 19 20 21 22 23 24 25 26 27 28 29 30 31 32 33
000
FTPA31 PHFO 020500
TAFLNY
TAF
PHNY 020529Z 0206/0306 31010KT P6SM SCT007 SCT015
      TEMPO 0206/0208 BKN007 OVC015
     FM021000 21007KT P6SM VCSH SCT015 BKN035
      AMD NOT SKED=

USA.gov is the U.S. government's official web portal to all federal, state and local government web resources and services.